sensor_id;sensor_type;location;lat;lon;timestamp;temperature;humidity
71039;SHT30;58692;43.212;27.908;2023-05-20T00:01:52;19.16;63.28
71039;SHT30;58692;43.212;27.908;2023-05-20T00:04:18;19.23;63.09
71039;SHT30;58692;43.212;27.908;2023-05-20T00:06:44;19.17;63.37
71039;SHT30;58692;43.212;27.908;2023-05-20T00:09:10;19.16;63.39
71039;SHT30;58692;43.212;27.908;2023-05-20T00:11:35;19.26;63.23
71039;SHT30;58692;43.212;27.908;2023-05-20T00:14:01;19.20;63.31
71039;SHT30;58692;43.212;27.908;2023-05-20T00:16:26;19.21;63.36
71039;SHT30;58692;43.212;27.908;2023-05-20T00:18:51;19.20;63.46
71039;SHT30;58692;43.212;27.908;2023-05-20T00:21:17;19.18;63.67
71039;SHT30;58692;43.212;27.908;2023-05-20T00:23:43;19.30;63.35
71039;SHT30;58692;43.212;27.908;2023-05-20T00:26:08;19.39;63.25
71039;SHT30;58692;43.212;27.908;2023-05-20T00:28:35;19.35;63.33
71039;SHT30;58692;43.212;27.908;2023-05-20T00:31:00;19.37;63.34
71039;SHT30;58692;43.212;27.908;2023-05-20T00:33:26;19.39;63.38
71039;SHT30;58692;43.212;27.908;2023-05-20T00:35:51;19.41;63.49
71039;SHT30;58692;43.212;27.908;2023-05-20T00:38:16;19.38;63.67
71039;SHT30;58692;43.212;27.908;2023-05-20T00:40:42;19.27;64.05
71039;SHT30;58692;43.212;27.908;2023-05-20T00:43:08;19.26;64.10
71039;SHT30;58692;43.212;27.908;2023-05-20T00:45:33;19.18;64.41
71039;SHT30;58692;43.212;27.908;2023-05-20T00:48:00;19.24;64.41
71039;SHT30;58692;43.212;27.908;2023-05-20T00:50:28;19.13;64.79
71039;SHT30;58692;43.212;27.908;2023-05-20T00:52:54;19.16;64.67
71039;SHT30;58692;43.212;27.908;2023-05-20T00:55:20;19.13;64.86
71039;SHT30;58692;43.212;27.908;2023-05-20T00:57:47;19.18;64.79
71039;SHT30;58692;43.212;27.908;2023-05-20T01:00:13;19.13;64.99
71039;SHT30;58692;43.212;27.908;2023-05-20T01:02:39;19.17;65.06
71039;SHT30;58692;43.212;27.908;2023-05-20T01:05:05;19.06;65.29
71039;SHT30;58692;43.212;27.908;2023-05-20T01:07:31;19.07;65.36
71039;SHT30;58692;43.212;27.908;2023-05-20T01:09:57;19.06;65.56
71039;SHT30;58692;43.212;27.908;2023-05-20T01:12:28;19.00;65.79
71039;SHT30;58692;43.212;27.908;2023-05-20T01:17:43;19.04;65.80
71039;SHT30;58692;43.212;27.908;2023-05-20T01:20:10;19.06;65.78
71039;SHT30;58692;43.212;27.908;2023-05-20T01:22:45;19.07;65.83
71039;SHT30;58692;43.212;27.908;2023-05-20T01:25:11;19.07;65.84
71039;SHT30;58692;43.212;27.908;2023-05-20T01:27:36;19.11;65.73
71039;SHT30;58692;43.212;27.908;2023-05-20T01:30:02;19.20;65.66
71039;SHT30;58692;43.212;27.908;2023-05-20T01:32:32;19.23;65.68
71039;SHT30;58692;43.212;27.908;2023-05-20T01:34:59;19.20;65.72
71039;SHT30;58692;43.212;27.908;2023-05-20T01:37:26;19.07;65.98
71039;SHT30;58692;43.212;27.908;2023-05-20T01:39:53;19.07;66.22
71039;SHT30;58692;43.212;27.908;2023-05-20T01:42:19;18.96;66.60
71039;SHT30;58692;43.212;27.908;2023-05-20T01:44:45;19.06;66.33
71039;SHT30;58692;43.212;27.908;2023-05-20T01:47:10;19.02;66.52
71039;SHT30;58692;43.212;27.908;2023-05-20T01:49:36;18.89;66.74
71039;SHT30;58692;43.212;27.908;2023-05-20T01:52:01;18.93;66.64
71039;SHT30;58692;43.212;27.908;2023-05-20T01:54:27;18.84;66.91
71039;SHT30;58692;43.212;27.908;2023-05-20T01:56:53;18.87;66.71
71039;SHT30;58692;43.212;27.908;2023-05-20T01:59:18;18.92;66.72
71039;SHT30;58692;43.212;27.908;2023-05-20T02:01:44;18.82;66.82
71039;SHT30;58692;43.212;27.908;2023-05-20T02:04:10;18.83;66.78
71039;SHT30;58692;43.212;27.908;2023-05-20T02:06:36;18.86;67.09
71039;SHT30;58692;43.212;27.908;2023-05-20T02:09:01;18.89;67.05
71039;SHT30;58692;43.212;27.908;2023-05-20T02:11:26;18.84;67.31
71039;SHT30;58692;43.212;27.908;2023-05-20T02:13:52;18.77;67.37
71039;SHT30;58692;43.212;27.908;2023-05-20T02:16:17;18.72;67.82
71039;SHT30;58692;43.212;27.908;2023-05-20T02:18:43;18.69;68.09
71039;SHT30;58692;43.212;27.908;2023-05-20T02:21:09;18.69;68.00
71039;SHT30;58692;43.212;27.908;2023-05-20T02:23:34;18.69;68.11
71039;SHT30;58692;43.212;27.908;2023-05-20T02:26:00;18.67;68.20
71039;SHT30;58692;43.212;27.908;2023-05-20T02:28:25;18.60;68.41
71039;SHT30;58692;43.212;27.908;2023-05-20T02:30:51;18.62;68.61
71039;SHT30;58692;43.212;27.908;2023-05-20T02:33:17;18.60;68.66
71039;SHT30;58692;43.212;27.908;2023-05-20T02:35:42;18.65;68.53
71039;SHT30;58692;43.212;27.908;2023-05-20T02:38:10;18.60;68.68
71039;SHT30;58692;43.212;27.908;2023-05-20T02:40:35;18.67;68.60
71039;SHT30;58692;43.212;27.908;2023-05-20T02:43:02;18.69;68.51
71039;SHT30;58692;43.212;27.908;2023-05-20T02:45:28;18.74;68.40
71039;SHT30;58692;43.212;27.908;2023-05-20T02:47:54;18.69;68.69
71039;SHT30;58692;43.212;27.908;2023-05-20T02:50:20;18.65;68.91
71039;SHT30;58692;43.212;27.908;2023-05-20T02:52:45;18.69;68.73
71039;SHT30;58692;43.212;27.908;2023-05-20T02:55:11;18.62;68.89
71039;SHT30;58692;43.212;27.908;2023-05-20T02:57:37;18.66;68.77
71039;SHT30;58692;43.212;27.908;2023-05-20T03:00:04;18.66;68.84
71039;SHT30;58692;43.212;27.908;2023-05-20T03:02:31;18.73;68.72
71039;SHT30;58692;43.212;27.908;2023-05-20T03:04:57;18.70;69.03
71039;SHT30;58692;43.212;27.908;2023-05-20T03:07:22;18.65;69.33
71039;SHT30;58692;43.212;27.908;2023-05-20T03:09:48;18.57;69.68
71039;SHT30;58692;43.212;27.908;2023-05-20T03:12:14;18.56;69.72
71039;SHT30;58692;43.212;27.908;2023-05-20T03:14:40;18.45;70.12
71039;SHT30;58692;43.212;27.908;2023-05-20T03:17:05;18.48;69.91
71039;SHT30;58692;43.212;27.908;2023-05-20T03:19:31;18.59;69.55
71039;SHT30;58692;43.212;27.908;2023-05-20T03:21:56;18.59;69.39
71039;SHT30;58692;43.212;27.908;2023-05-20T03:24:23;18.52;69.18
71039;SHT30;58692;43.212;27.908;2023-05-20T03:26:48;18.55;69.18
71039;SHT30;58692;43.212;27.908;2023-05-20T03:29:15;18.53;69.03
71039;SHT30;58692;43.212;27.908;2023-05-20T03:31:42;18.43;68.87
71039;SHT30;58692;43.212;27.908;2023-05-20T03:34:07;18.53;68.69
71039;SHT30;58692;43.212;27.908;2023-05-20T03:36:33;18.56;68.52
71039;SHT30;58692;43.212;27.908;2023-05-20T03:38:58;18.60;68.63
71039;SHT30;58692;43.212;27.908;2023-05-20T03:41:24;18.62;68.71
71039;SHT30;58692;43.212;27.908;2023-05-20T03:43:50;18.56;68.61
71039;SHT30;58692;43.212;27.908;2023-05-20T03:46:15;18.52;68.94
71039;SHT30;58692;43.212;27.908;2023-05-20T03:48:41;18.49;68.95
71039;SHT30;58692;43.212;27.908;2023-05-20T03:51:06;18.45;68.79
71039;SHT30;58692;43.212;27.908;2023-05-20T03:53:32;18.49;68.81
71039;SHT30;58692;43.212;27.908;2023-05-20T03:55:58;18.41;69.42
71039;SHT30;58692;43.212;27.908;2023-05-20T03:58:23;18.41;70.21
71039;SHT30;58692;43.212;27.908;2023-05-20T04:00:49;18.32;70.23
71039;SHT30;58692;43.212;27.908;2023-05-20T04:03:15;18.35;70.93
71039;SHT30;58692;43.212;27.908;2023-05-20T04:05:40;18.33;71.12
71039;SHT30;58692;43.212;27.908;2023-05-20T04:08:06;18.31;71.19
71039;SHT30;58692;43.212;27.908;2023-05-20T04:10:32;18.32;72.40
71039;SHT30;58692;43.212;27.908;2023-05-20T04:12:57;18.28;72.67
71039;SHT30;58692;43.212;27.908;2023-05-20T04:15:23;18.31;74.41
71039;SHT30;58692;43.212;27.908;2023-05-20T04:17:51;18.13;74.72
71039;SHT30;58692;43.212;27.908;2023-05-20T04:20:17;18.11;76.03
71039;SHT30;58692;43.212;27.908;2023-05-20T04:22:43;18.05;77.33
71039;SHT30;58692;43.212;27.908;2023-05-20T04:25:09;18.01;76.62
71039;SHT30;58692;43.212;27.908;2023-05-20T04:27:35;18.08;77.60
71039;SHT30;58692;43.212;27.908;2023-05-20T04:30:03;18.08;76.59
71039;SHT30;58692;43.212;27.908;2023-05-20T04:32:29;18.05;77.05
71039;SHT30;58692;43.212;27.908;2023-05-20T04:34:55;18.01;77.67
71039;SHT30;58692;43.212;27.908;2023-05-20T04:37:21;17.92;78.00
71039;SHT30;58692;43.212;27.908;2023-05-20T04:39:47;17.91;78.74
71039;SHT30;58692;43.212;27.908;2023-05-20T04:42:14;17.94;78.25
71039;SHT30;58692;43.212;27.908;2023-05-20T04:44:43;17.91;78.47
71039;SHT30;58692;43.212;27.908;2023-05-20T04:47:10;17.84;78.15
71039;SHT30;58692;43.212;27.908;2023-05-20T04:49:36;17.69;79.02
71039;SHT30;58692;43.212;27.908;2023-05-20T04:52:02;17.69;79.53
71039;SHT30;58692;43.212;27.908;2023-05-20T04:54:29;17.69;80.04
71039;SHT30;58692;43.212;27.908;2023-05-20T04:56:55;17.60;79.02
71039;SHT30;58692;43.212;27.908;2023-05-20T04:59:21;17.66;79.33
71039;SHT30;58692;43.212;27.908;2023-05-20T05:01:46;17.69;79.05
71039;SHT30;58692;43.212;27.908;2023-05-20T05:04:12;17.66;79.44
71039;SHT30;58692;43.212;27.908;2023-05-20T05:06:37;17.61;80.01
71039;SHT30;58692;43.212;27.908;2023-05-20T05:09:03;17.63;79.91
71039;SHT30;58692;43.212;27.908;2023-05-20T05:11:29;17.54;80.35
71039;SHT30;58692;43.212;27.908;2023-05-20T05:13:55;17.47;80.44
71039;SHT30;58692;43.212;27.908;2023-05-20T05:16:21;17.49;80.46
71039;SHT30;58692;43.212;27.908;2023-05-20T05:18:46;17.43;80.17
71039;SHT30;58692;43.212;27.908;2023-05-20T05:21:12;17.51;80.54
71039;SHT30;58692;43.212;27.908;2023-05-20T05:23:37;17.59;80.30
71039;SHT30;58692;43.212;27.908;2023-05-20T05:26:03;17.66;79.30
71039;SHT30;58692;43.212;27.908;2023-05-20T05:28:28;17.88;78.56
71039;SHT30;58692;43.212;27.908;2023-05-20T05:30:54;17.94;79.23
71039;SHT30;58692;43.212;27.908;2023-05-20T05:33:21;18.08;78.23
71039;SHT30;58692;43.212;27.908;2023-05-20T05:35:46;18.08;77.69
71039;SHT30;58692;43.212;27.908;2023-05-20T05:38:12;18.01;78.39
71039;SHT30;58692;43.212;27.908;2023-05-20T05:40:37;17.95;77.38
71039;SHT30;58692;43.212;27.908;2023-05-20T05:43:03;17.95;78.11
71039;SHT30;58692;43.212;27.908;2023-05-20T05:45:28;18.08;77.17
71039;SHT30;58692;43.212;27.908;2023-05-20T05:47:54;18.08;76.76
71039;SHT30;58692;43.212;27.908;2023-05-20T05:50:19;18.08;77.11
71039;SHT30;58692;43.212;27.908;2023-05-20T05:52:45;18.13;76.93
71039;SHT30;58692;43.212;27.908;2023-05-20T05:55:10;18.12;75.98
71039;SHT30;58692;43.212;27.908;2023-05-20T05:57:36;18.18;76.25
71039;SHT30;58692;43.212;27.908;2023-05-20T06:00:02;18.25;75.90
71039;SHT30;58692;43.212;27.908;2023-05-20T06:02:28;18.35;75.75
71039;SHT30;58692;43.212;27.908;2023-05-20T06:04:54;18.29;75.76
71039;SHT30;58692;43.212;27.908;2023-05-20T06:07:19;18.29;74.99
71039;SHT30;58692;43.212;27.908;2023-05-20T06:09:45;18.39;74.48
71039;SHT30;58692;43.212;27.908;2023-05-20T06:12:11;18.22;74.50
71039;SHT30;58692;43.212;27.908;2023-05-20T06:14:36;18.29;74.48
71039;SHT30;58692;43.212;27.908;2023-05-20T06:17:02;18.36;74.14
71039;SHT30;58692;43.212;27.908;2023-05-20T06:19:28;18.39;73.74
71039;SHT30;58692;43.212;27.908;2023-05-20T06:21:55;18.31;72.36
71039;SHT30;58692;43.212;27.908;2023-05-20T06:24:21;18.35;73.05
71039;SHT30;58692;43.212;27.908;2023-05-20T06:26:47;18.29;71.60
71039;SHT30;58692;43.212;27.908;2023-05-20T06:29:14;18.36;71.44
71039;SHT30;58692;43.212;27.908;2023-05-20T06:31:40;18.43;70.70
71039;SHT30;58692;43.212;27.908;2023-05-20T06:34:06;18.51;69.71
71039;SHT30;58692;43.212;27.908;2023-05-20T06:36:31;18.63;69.12
71039;SHT30;58692;43.212;27.908;2023-05-20T06:38:57;18.74;69.02
71039;SHT30;58692;43.212;27.908;2023-05-20T06:41:23;18.89;67.91
71039;SHT30;58692;43.212;27.908;2023-05-20T06:43:48;18.94;67.39
71039;SHT30;58692;43.212;27.908;2023-05-20T06:46:14;19.02;66.54
71039;SHT30;58692;43.212;27.908;2023-05-20T06:48:39;19.11;66.27
71039;SHT30;58692;43.212;27.908;2023-05-20T06:51:07;19.24;66.29
71039;SHT30;58692;43.212;27.908;2023-05-20T06:53:34;19.30;65.03
71039;SHT30;58692;43.212;27.908;2023-05-20T06:56:00;19.28;65.05
71039;SHT30;58692;43.212;27.908;2023-05-20T06:58:25;19.37;64.36
71039;SHT30;58692;43.212;27.908;2023-05-20T07:00:51;19.50;63.67
71039;SHT30;58692;43.212;27.908;2023-05-20T07:03:16;19.71;63.20
71039;SHT30;58692;43.212;27.908;2023-05-20T07:05:42;19.65;62.82
71039;SHT30;58692;43.212;27.908;2023-05-20T07:08:07;19.54;63.01
71039;SHT30;58692;43.212;27.908;2023-05-20T07:10:33;19.53;62.52
71039;SHT30;58692;43.212;27.908;2023-05-20T07:12:58;19.55;62.93
71039;SHT30;58692;43.212;27.908;2023-05-20T07:15:24;19.59;63.06
71039;SHT30;58692;43.212;27.908;2023-05-20T07:17:49;19.64;63.07
71039;SHT30;58692;43.212;27.908;2023-05-20T07:20:15;19.62;63.22
71039;SHT30;58692;43.212;27.908;2023-05-20T07:22:41;19.61;63.42
71039;SHT30;58692;43.212;27.908;2023-05-20T07:25:08;19.62;63.74
71039;SHT30;58692;43.212;27.908;2023-05-20T07:27:34;19.65;64.34
71039;SHT30;58692;43.212;27.908;2023-05-20T07:30:00;19.68;64.77
71039;SHT30;58692;43.212;27.908;2023-05-20T07:32:25;19.77;65.02
71039;SHT30;58692;43.212;27.908;2023-05-20T07:34:51;19.67;65.05
71039;SHT30;58692;43.212;27.908;2023-05-20T07:37:16;19.65;65.33
71039;SHT30;58692;43.212;27.908;2023-05-20T07:39:42;19.57;66.14
71039;SHT30;58692;43.212;27.908;2023-05-20T07:42:07;19.55;66.51
71039;SHT30;58692;43.212;27.908;2023-05-20T07:44:33;19.51;66.78
71039;SHT30;58692;43.212;27.908;2023-05-20T07:46:58;19.57;67.06
71039;SHT30;58692;43.212;27.908;2023-05-20T07:49:24;19.45;67.48
71039;SHT30;58692;43.212;27.908;2023-05-20T07:51:50;19.48;67.88
71039;SHT30;58692;43.212;27.908;2023-05-20T07:54:16;19.43;68.78
71039;SHT30;58692;43.212;27.908;2023-05-20T07:56:41;19.38;68.94
71039;SHT30;58692;43.212;27.908;2023-05-20T07:59:07;19.28;69.56
71039;SHT30;58692;43.212;27.908;2023-05-20T08:01:32;19.28;71.47
71039;SHT30;58692;43.212;27.908;2023-05-20T08:03:58;19.28;72.66
71039;SHT30;58692;43.212;27.908;2023-05-20T08:06:24;19.21;73.46
71039;SHT30;58692;43.212;27.908;2023-05-20T08:08:50;19.24;75.79
71039;SHT30;58692;43.212;27.908;2023-05-20T08:11:19;19.08;76.33
71039;SHT30;58692;43.212;27.908;2023-05-20T08:13:46;19.06;77.09
71039;SHT30;58692;43.212;27.908;2023-05-20T08:16:12;18.89;77.69
71039;SHT30;58692;43.212;27.908;2023-05-20T08:18:37;18.99;79.03
71039;SHT30;58692;43.212;27.908;2023-05-20T08:21:05;19.06;79.59
71039;SHT30;58692;43.212;27.908;2023-05-20T08:23:32;19.00;79.44
71039;SHT30;58692;43.212;27.908;2023-05-20T08:25:59;18.87;78.51
71039;SHT30;58692;43.212;27.908;2023-05-20T08:28:27;18.80;80.12
71039;SHT30;58692;43.212;27.908;2023-05-20T08:30:52;18.74;80.63
71039;SHT30;58692;43.212;27.908;2023-05-20T08:33:19;18.67;80.40
71039;SHT30;58692;43.212;27.908;2023-05-20T08:35:46;18.80;81.08
71039;SHT30;58692;43.212;27.908;2023-05-20T08:38:12;18.89;81.15
71039;SHT30;58692;43.212;27.908;2023-05-20T08:40:37;18.82;80.40
71039;SHT30;58692;43.212;27.908;2023-05-20T08:43:03;18.76;81.98
71039;SHT30;58692;43.212;27.908;2023-05-20T08:45:31;18.67;80.73
71039;SHT30;58692;43.212;27.908;2023-05-20T08:47:58;18.66;80.48
71039;SHT30;58692;43.212;27.908;2023-05-20T08:50:24;18.70;81.34
71039;SHT30;58692;43.212;27.908;2023-05-20T08:52:50;18.62;80.03
71039;SHT30;58692;43.212;27.908;2023-05-20T08:55:21;18.69;81.06
71039;SHT30;58692;43.212;27.908;2023-05-20T08:57:49;18.63;80.73
71039;SHT30;58692;43.212;27.908;2023-05-20T09:00:16;18.77;80.91
71039;SHT30;58692;43.212;27.908;2023-05-20T09:02:44;18.89;81.25
71039;SHT30;58692;43.212;27.908;2023-05-20T09:05:10;18.93;81.65
71039;SHT30;58692;43.212;27.908;2023-05-20T09:07:36;18.99;81.46
71039;SHT30;58692;43.212;27.908;2023-05-20T09:10:02;19.08;81.01
71039;SHT30;58692;43.212;27.908;2023-05-20T09:12:28;19.14;79.11
71039;SHT30;58692;43.212;27.908;2023-05-20T09:14:53;19.20;80.23
71039;SHT30;58692;43.212;27.908;2023-05-20T09:17:20;19.24;80.64
71039;SHT30;58692;43.212;27.908;2023-05-20T09:19:49;19.13;80.35
71039;SHT30;58692;43.212;27.908;2023-05-20T09:22:25;19.41;80.23
71039;SHT30;58692;43.212;27.908;2023-05-20T09:24:51;19.50;79.52
71039;SHT30;58692;43.212;27.908;2023-05-20T09:27:17;19.39;79.19
71039;SHT30;58692;43.212;27.908;2023-05-20T09:29:43;19.48;79.07
71039;SHT30;58692;43.212;27.908;2023-05-20T09:32:09;19.45;79.87
71039;SHT30;58692;43.212;27.908;2023-05-20T09:34:36;19.38;80.44
71039;SHT30;58692;43.212;27.908;2023-05-20T09:37:04;19.45;79.34
71039;SHT30;58692;43.212;27.908;2023-05-20T09:39:33;19.61;79.26
71039;SHT30;58692;43.212;27.908;2023-05-20T09:42:05;19.51;79.28
71039;SHT30;58692;43.212;27.908;2023-05-20T09:44:32;19.53;78.79
71039;SHT30;58692;43.212;27.908;2023-05-20T09:46:58;19.69;78.04
71039;SHT30;58692;43.212;27.908;2023-05-20T09:49:25;19.75;77.64
71039;SHT30;58692;43.212;27.908;2023-05-20T09:51:53;19.74;77.52
71039;SHT30;58692;43.212;27.908;2023-05-20T09:54:20;19.81;77.49
71039;SHT30;58692;43.212;27.908;2023-05-20T09:56:47;19.88;77.67
71039;SHT30;58692;43.212;27.908;2023-05-20T09:59:14;19.90;77.05
71039;SHT30;58692;43.212;27.908;2023-05-20T10:01:41;20.00;77.92
71039;SHT30;58692;43.212;27.908;2023-05-20T10:04:08;20.06;77.22
71039;SHT30;58692;43.212;27.908;2023-05-20T10:09:23;20.46;76.39
71039;SHT30;58692;43.212;27.908;2023-05-20T10:11:57;20.66;75.92
71039;SHT30;58692;43.212;27.908;2023-05-20T10:17:12;21.14;73.78
71039;SHT30;58692;43.212;27.908;2023-05-20T10:19:40;21.45;73.85
71039;SHT30;58692;43.212;27.908;2023-05-20T10:22:08;21.72;71.83
71039;SHT30;58692;43.212;27.908;2023-05-20T10:24:36;22.32;70.92
71039;SHT30;58692;43.212;27.908;2023-05-20T10:27:06;23.41;68.18
71039;SHT30;58692;43.212;27.908;2023-05-20T10:29:51;23.04;69.11
71039;SHT30;58692;43.212;27.908;2023-05-20T10:32:26;22.12;71.49
71039;SHT30;58692;43.212;27.908;2023-05-20T10:34:52;23.39;69.43
71039;SHT30;58692;43.212;27.908;2023-05-20T10:37:33;24.63;65.37
71039;SHT30;58692;43.212;27.908;2023-05-20T10:42:31;25.86;60.90
71039;SHT30;58692;43.212;27.908;2023-05-20T10:44:57;26.32;56.63
71039;SHT30;58692;43.212;27.908;2023-05-20T10:47:22;26.45;57.40
71039;SHT30;58692;43.212;27.908;2023-05-20T10:49:48;26.86;50.53
71039;SHT30;58692;43.212;27.908;2023-05-20T10:52:16;26.11;51.16
71039;SHT30;58692;43.212;27.908;2023-05-20T10:54:47;25.54;49.85
71039;SHT30;58692;43.212;27.908;2023-05-20T10:57:13;25.97;48.07
71039;SHT30;58692;43.212;27.908;2023-05-20T10:59:39;26.91;46.01
71039;SHT30;58692;43.212;27.908;2023-05-20T11:02:05;27.24;44.83
71039;SHT30;58692;43.212;27.908;2023-05-20T11:04:31;27.53;44.52
71039;SHT30;58692;43.212;27.908;2023-05-20T11:06:57;28.08;44.50
71039;SHT30;58692;43.212;27.908;2023-05-20T11:09:23;27.53;44.35
71039;SHT30;58692;43.212;27.908;2023-05-20T11:11:52;27.07;44.24
71039;SHT30;58692;43.212;27.908;2023-05-20T11:14:20;27.74;44.43
71039;SHT30;58692;43.212;27.908;2023-05-20T11:16:50;28.18;40.47
71039;SHT30;58692;43.212;27.908;2023-05-20T11:19:16;28.18;40.11
71039;SHT30;58692;43.212;27.908;2023-05-20T11:21:44;28.15;44.88
71039;SHT30;58692;43.212;27.908;2023-05-20T11:24:11;28.08;44.15
71039;SHT30;58692;43.212;27.908;2023-05-20T11:26:38;28.26;41.31
71039;SHT30;58692;43.212;27.908;2023-05-20T11:29:03;26.79;44.75
71039;SHT30;58692;43.212;27.908;2023-05-20T11:31:30;25.86;46.47
71039;SHT30;58692;43.212;27.908;2023-05-20T11:33:58;25.62;49.83
71039;SHT30;58692;43.212;27.908;2023-05-20T11:36:26;24.69;51.62
71039;SHT30;58692;43.212;27.908;2023-05-20T11:38:53;24.92;51.90
71039;SHT30;58692;43.212;27.908;2023-05-20T11:41:23;25.37;51.33
71039;SHT30;58692;43.212;27.908;2023-05-20T11:43:58;25.12;52.08
71039;SHT30;58692;43.212;27.908;2023-05-20T11:46:24;24.91;53.21
71039;SHT30;58692;43.212;27.908;2023-05-20T11:48:52;25.04;52.78
71039;SHT30;58692;43.212;27.908;2023-05-20T11:51:17;24.35;53.77
71039;SHT30;58692;43.212;27.908;2023-05-20T11:53:45;23.94;55.33
71039;SHT30;58692;43.212;27.908;2023-05-20T11:56:13;23.86;55.57
71039;SHT30;58692;43.212;27.908;2023-05-20T11:58:38;24.37;54.58
71039;SHT30;58692;43.212;27.908;2023-05-20T12:01:04;24.18;54.50
71039;SHT30;58692;43.212;27.908;2023-05-20T12:03:29;23.66;56.15
71039;SHT30;58692;43.212;27.908;2023-05-20T12:05:55;23.12;58.35
71039;SHT30;58692;43.212;27.908;2023-05-20T12:08:21;23.15;58.52
71039;SHT30;58692;43.212;27.908;2023-05-20T12:10:46;22.75;59.87
71039;SHT30;58692;43.212;27.908;2023-05-20T12:13:12;22.61;60.59
71039;SHT30;58692;43.212;27.908;2023-05-20T12:15:39;22.74;59.39
71039;SHT30;58692;43.212;27.908;2023-05-20T12:18:04;22.95;59.62
71039;SHT30;58692;43.212;27.908;2023-05-20T12:20:30;22.97;59.56
71039;SHT30;58692;43.212;27.908;2023-05-20T12:22:58;22.94;60.28
71039;SHT30;58692;43.212;27.908;2023-05-20T12:25:24;23.26;59.52
71039;SHT30;58692;43.212;27.908;2023-05-20T12:27:50;23.39;59.34
71039;SHT30;58692;43.212;27.908;2023-05-20T12:30:18;23.37;58.70
71039;SHT30;58692;43.212;27.908;2023-05-20T12:32:45;22.98;59.92
71039;SHT30;58692;43.212;27.908;2023-05-20T12:35:11;22.61;61.32
71039;SHT30;58692;43.212;27.908;2023-05-20T12:37:38;22.58;61.53
71039;SHT30;58692;43.212;27.908;2023-05-20T12:40:06;22.57;61.76
71039;SHT30;58692;43.212;27.908;2023-05-20T12:42:34;22.56;59.29
71039;SHT30;58692;43.212;27.908;2023-05-20T12:45:01;22.72;60.94
71039;SHT30;58692;43.212;27.908;2023-05-20T12:47:27;22.56;61.22
71039;SHT30;58692;43.212;27.908;2023-05-20T12:49:52;22.57;60.62
71039;SHT30;58692;43.212;27.908;2023-05-20T12:52:18;22.70;60.76
71039;SHT30;58692;43.212;27.908;2023-05-20T12:54:43;22.83;59.13
71039;SHT30;58692;43.212;27.908;2023-05-20T12:57:09;23.15;53.95
71039;SHT30;58692;43.212;27.908;2023-05-20T12:59:35;22.99;58.42
71039;SHT30;58692;43.212;27.908;2023-05-20T13:02:01;22.98;60.61
71039;SHT30;58692;43.212;27.908;2023-05-20T13:04:27;22.61;62.30
71039;SHT30;58692;43.212;27.908;2023-05-20T13:06:52;22.50;63.43
71039;SHT30;58692;43.212;27.908;2023-05-20T13:09:18;22.20;63.97
71039;SHT30;58692;43.212;27.908;2023-05-20T13:11:43;22.29;63.98
71039;SHT30;58692;43.212;27.908;2023-05-20T13:14:09;22.12;63.37
71039;SHT30;58692;43.212;27.908;2023-05-20T13:16:35;22.27;63.50
71039;SHT30;58692;43.212;27.908;2023-05-20T13:19:00;22.48;62.27
71039;SHT30;58692;43.212;27.908;2023-05-20T13:21:26;22.61;61.25
71039;SHT30;58692;43.212;27.908;2023-05-20T13:23:51;22.57;61.61
71039;SHT30;58692;43.212;27.908;2023-05-20T13:26:17;22.47;62.23
71039;SHT30;58692;43.212;27.908;2023-05-20T13:28:42;22.84;55.52
71039;SHT30;58692;43.212;27.908;2023-05-20T13:31:08;23.52;48.69
71039;SHT30;58692;43.212;27.908;2023-05-20T13:33:34;23.86;53.48
71039;SHT30;58692;43.212;27.908;2023-05-20T13:36:00;23.53;58.60
71039;SHT30;58692;43.212;27.908;2023-05-20T13:38:25;23.52;56.67
71039;SHT30;58692;43.212;27.908;2023-05-20T13:40:51;23.01;61.26
71039;SHT30;58692;43.212;27.908;2023-05-20T13:43:16;22.47;63.56
71039;SHT30;58692;43.212;27.908;2023-05-20T13:45:43;22.32;63.33
71039;SHT30;58692;43.212;27.908;2023-05-20T13:48:08;22.36;62.93
71039;SHT30;58692;43.212;27.908;2023-05-20T13:50:34;22.14;63.75
71039;SHT30;58692;43.212;27.908;2023-05-20T13:53:00;22.27;62.83
71039;SHT30;58692;43.212;27.908;2023-05-20T13:55:25;22.29;62.04
71039;SHT30;58692;43.212;27.908;2023-05-20T13:57:51;22.53;59.31
71039;SHT30;58692;43.212;27.908;2023-05-20T14:00:18;22.63;58.61
71039;SHT30;58692;43.212;27.908;2023-05-20T14:02:44;22.70;56.79
71039;SHT30;58692;43.212;27.908;2023-05-20T14:05:09;22.86;56.55
71039;SHT30;58692;43.212;27.908;2023-05-20T14:07:37;22.94;56.01
71039;SHT30;58692;43.212;27.908;2023-05-20T14:10:04;23.14;54.77
71039;SHT30;58692;43.212;27.908;2023-05-20T14:12:30;23.28;54.32
71039;SHT30;58692;43.212;27.908;2023-05-20T14:14:55;23.52;53.41
71039;SHT30;58692;43.212;27.908;2023-05-20T14:17:21;23.59;53.30
71039;SHT30;58692;43.212;27.908;2023-05-20T14:19:47;23.59;52.87
71039;SHT30;58692;43.212;27.908;2023-05-20T14:22:13;23.53;52.35
71039;SHT30;58692;43.212;27.908;2023-05-20T14:24:39;23.46;52.26
71039;SHT30;58692;43.212;27.908;2023-05-20T14:27:05;23.67;52.25
71039;SHT30;58692;43.212;27.908;2023-05-20T14:29:31;23.53;52.40
71039;SHT30;58692;43.212;27.908;2023-05-20T14:31:56;23.49;52.43
71039;SHT30;58692;43.212;27.908;2023-05-20T14:34:22;23.52;52.61
71039;SHT30;58692;43.212;27.908;2023-05-20T14:36:47;23.59;52.59
71039;SHT30;58692;43.212;27.908;2023-05-20T14:39:13;23.52;52.96
71039;SHT30;58692;43.212;27.908;2023-05-20T14:41:38;23.52;53.22
71039;SHT30;58692;43.212;27.908;2023-05-20T14:44:04;23.53;53.37
71039;SHT30;58692;43.212;27.908;2023-05-20T14:46:29;23.31;53.59
71039;SHT30;58692;43.212;27.908;2023-05-20T14:48:55;23.15;53.66
71039;SHT30;58692;43.212;27.908;2023-05-20T14:51:21;23.11;53.82
71039;SHT30;58692;43.212;27.908;2023-05-20T14:53:46;23.16;53.96
71039;SHT30;58692;43.212;27.908;2023-05-20T14:56:12;22.98;53.68
71039;SHT30;58692;43.212;27.908;2023-05-20T14:58:37;22.86;53.98
71039;SHT30;58692;43.212;27.908;2023-05-20T15:01:03;22.80;54.11
71039;SHT30;58692;43.212;27.908;2023-05-20T15:03:29;22.78;54.39
71039;SHT30;58692;43.212;27.908;2023-05-20T15:05:54;22.71;54.44
71039;SHT30;58692;43.212;27.908;2023-05-20T15:08:20;22.68;54.38
71039;SHT30;58692;43.212;27.908;2023-05-20T15:10:45;22.67;54.47
71039;SHT30;58692;43.212;27.908;2023-05-20T15:13:11;22.60;54.43
71039;SHT30;58692;43.212;27.908;2023-05-20T15:15:36;22.48;54.55
71039;SHT30;58692;43.212;27.908;2023-05-20T15:18:02;22.41;54.84
71039;SHT30;58692;43.212;27.908;2023-05-20T15:20:28;22.47;55.18